Latest Weather Observations for Low Rocky Point

IDT60801

Issued at 3:31 pm EST Monday 2 May 2016 (issued every 30 minutes, with the page automatically refreshed every 10 minutes)

About weather observations | Map of weather stations | Latest weather observations for TAS | Other Formats
Station Details ID: 097080 Name: LOW ROCKY POINT Lat: -42.98 Lon: 145.50 Height: 34.0 m
Data from the previous 72 hours. | See also: Recent months at Low Rocky Point
Date/Time
EST
Temp
°C
App
Temp
°C
Dew
Point
Rel
Hum
%
Delta-T
°C
Wind Press
QNH
hPa
Press
MSL
hPa
Rain
since 9 am
mm
Dir
 
Spd
km/h
Gust
km/h
Spd
kts
Gust
kts
02/03:30pm 15.2 1.3 11.6 79 2.0 NNW 76 100 41 54 993.9 993.9 0.2
02/03:00pm 14.9 2.4 12.0 83 1.6 NNW 69 89 37 48 994.4 994.4 0.2
02/02:30pm 14.7 1.1 11.3 80 1.8 NNW 74 95 40 51 994.8 994.8 0.2
02/02:00pm 15.0 2.3 11.4 79 1.9 NNW 69 91 37 49 995.5 995.5 0.2
02/01:32pm 15.4 2.7 11.4 77 2.1 NNW 69 87 37 47 995.8 995.8 0.2
02/01:30pm 15.4 2.5 11.2 76 2.2 NNW 70 87 38 47 995.8 995.8 0.2
02/01:00pm 15.0 3.0 11.0 77 2.1 NNW 65 87 35 47 996.8 996.8 0.2
02/12:30pm 14.2 1.4 11.0 81 1.7 NW 69 89 37 48 997.6 997.6 0.2
02/12:13pm 15.0 4.1 11.0 77 2.1 NNW 59 80 32 43 997.8 997.8 0.2
02/12:00pm 14.6 2.3 11.4 81 1.7 NW 67 82 36 44 998.2 998.2 0.2
02/11:30am 13.2 2.0 11.3 88 1.0 NNW 61 83 33 45 999.1 999.1 0.0
02/11:00am 14.7 2.4 9.9 73 2.5 NW 65 83 35 45 999.2 999.2 0.0
02/10:41am 14.7 3.7 10.7 77 2.1 NW 59 78 32 42 999.6 999.6 0.0
02/10:30am 14.3 1.9 9.7 74 2.4 NW 65 80 35 43 999.7 999.7 0.0
02/10:00am 13.0 1.6 10.4 84 1.4 NW 61 83 33 45 1000.1 1000.1 0.0
02/09:30am 13.0 1.7 10.7 86 1.2 NW 61 85 33 46 1000.4 1000.4 0.0
02/09:27am 13.9 2.9 9.1 73 2.4 NW 57 76 31 41 1000.3 1000.3 0.0
02/09:00am 13.8 2.9 9.5 75 2.2 NW 57 70 31 38 1000.8 1000.8 14.0
02/08:30am 13.4 1.6 8.9 74 2.3 NW 61 74 33 40 1001.3 1001.3 14.0
02/08:16am 13.3 2.0 9.4 77 2.0 NW 59 78 32 42 1001.4 1001.4 14.0
02/08:00am 13.1 1.6 8.8 75 2.2 NW 59 76 32 41 1001.4 1001.4 14.0
02/07:57am 13.0 1.9 8.9 76 2.1 NW 57 76 31 41 1001.4 1001.4 14.0
02/07:30am 12.3 2.8 9.7 84 1.3 NW 50 63 27 34 1001.6 1001.6 14.0
02/07:00am 11.9 1.1 9.3 84 1.3 NW 56 70 30 38 1001.8 1001.8 14.0
02/06:30am 11.1 1.9 10.8 98 0.2 NW 50 74 27 40 1002.3 1002.3 13.8
02/06:00am 11.0 0.7 9.6 91 0.7 NW 54 74 29 40 1002.5 1002.5 13.2
02/05:54am 11.1 0.3 9.2 88 0.9 WNW 56 74 30 40 1002.4 1002.4 13.2
02/05:30am 11.0 2.4 10.2 95 0.4 NW 46 59 25 32 1002.8 1002.8 13.2
02/05:19am 10.8 1.3 9.7 93 0.6 WNW 50 69 27 37 1002.8 1002.8 13.0
02/05:00am 11.9 1.6 9.5 85 1.2 WNW 54 65 29 35 1002.7 1002.7 12.8
02/04:44am 11.8 2.1 9.2 84 1.3 WNW 50 69 27 37 1002.7 1002.7 12.8
02/04:30am 12.4 2.0 7.7 73 2.3 WNW 52 63 28 34 1002.6 1002.6 12.8
02/04:00am 11.9 1.0 7.2 73 2.3 WNW 54 69 29 37 1002.7 1002.7 12.8
02/03:30am 11.6 0.7 7.3 75 2.1 WNW 54 67 29 36 1003.0 1003.0 12.8
02/03:00am 10.7 0.1 8.3 85 1.2 WNW 54 69 29 37 1003.2 1003.2 12.8
02/02:30am 11.9 0.0 6.8 71 2.4 WNW 59 74 32 40 1003.3 1003.3 12.8
02/02:00am 11.8 0.4 6.5 70 2.5 WNW 56 70 30 38 1003.3 1003.3 12.8
02/01:30am 11.0 0.6 7.7 80 1.6 WNW 52 65 28 35 1003.3 1003.3 12.8
02/01:00am 11.6 1.8 7.1 74 2.2 WNW 48 67 26 36 1003.3 1003.3 12.6
02/12:59am 11.6 1.9 7.3 75 2.1 WNW 48 67 26 36 1003.4 1003.4 12.6
02/12:30am 11.2 1.3 6.5 73 2.2 WNW 48 61 26 33 1003.5 1003.5 12.6
02/12:00am 11.0 1.3 5.7 70 2.5 WNW 46 57 25 31 1003.8 1003.8 12.6
 
Date/Time
EST
Temp
°C
App
Temp
°C
Dew
Point
Rel
Hum
%
Delta-T
°C
Wind Press
QNH
hPa
Press
MSL
hPa
Rain
since 9 am
mm
Dir
 
Spd
km/h
Gust
km/h
Spd
kts
Gust
kts
01/11:30pm 10.2 0.8 7.3 82 1.4 W 46 59 25 32 1004.2 1004.2 12.6
01/11:00pm 10.9 1.9 6.6 75 2.0 W 43 57 23 31 1004.3 1004.3 12.6
01/10:30pm 10.9 2.0 6.8 76 1.9 W 43 54 23 29 1004.5 1004.5 12.6
01/10:00pm 10.6 0.9 6.0 73 2.1 W 46 57 25 31 1004.5 1004.5 12.6
01/09:30pm 9.9 -0.4 6.3 78 1.7 W 50 65 27 35 1004.4 1004.4 12.6
01/09:05pm 10.4 2.0 7.5 82 1.4 WSW 41 59 22 32 1004.2 1004.2 12.6
01/09:00pm 10.9 1.9 7.4 79 1.7 W 44 59 24 32 1004.1 1004.1 12.6
01/08:30pm 10.3 2.9 6.8 79 1.7 WSW 35 48 19 26 1003.9 1003.9 12.6
01/08:00pm 9.8 0.6 6.5 80 1.5 WSW 44 69 24 37 1003.6 1003.6 12.6
01/07:39pm 9.6 -0.1 7.4 86 1.0 WSW 48 67 26 36 1003.3 1003.3 12.4
01/07:30pm 9.8 -1.7 7.2 84 1.2 W 57 70 31 38 1003.2 1003.2 12.4
01/07:02pm 11.0 0.5 7.5 79 1.7 W 52 70 28 38 1002.6 1002.6 12.4
01/07:00pm 11.1 -0.1 7.4 78 1.8 W 56 70 30 38 1002.5 1002.5 12.4
01/06:30pm 10.4 0.9 8.5 88 0.9 WSW 48 69 26 37 1002.0 1002.0 12.4
01/06:00pm 10.8 0.2 8.6 86 1.1 WSW 54 74 29 40 1001.0 1001.0 12.4
01/05:30pm 10.9 1.4 9.7 92 0.6 WSW 50 69 27 37 1000.0 1000.0 12.2
01/05:00pm 10.6 1.2 10.0 96 0.3 WSW 50 69 27 37 998.8 998.8 11.4
01/04:30pm 10.7 1.4 10.5 99 0.1 WSW 50 74 27 40 997.6 997.6 10.8
01/04:00pm 10.8 0.4 10.6 99 0.1 WSW 56 82 30 44 996.2 996.2 9.2
01/03:59pm 10.9 0.5 10.7 99 0.1 WSW 56 82 30 44 996.2 996.2 9.0
01/03:30pm 10.6 -1.2 10.4 99 0.1 WSW 63 87 34 47 994.2 994.2 7.6
01/03:00pm 11.6 0.1 11.4 99 0.1 SW 63 95 34 51 992.3 992.3 4.2
01/02:58pm 11.5 -0.1 11.3 99 0.1 SW 63 93 34 50 992.1 992.1 4.0
01/02:30pm 12.1 -1.0 11.9 99 0.1 SW 72 102 39 55 990.1 990.1 3.2
01/02:18pm 12.3 -0.4 12.0 98 0.2 SW 70 106 38 57 989.2 989.2 3.0
01/02:13pm 12.5 2.0 12.2 98 0.2 WSW 59 95 32 51 989.0 989.0 3.0
01/02:00pm 13.1 5.5 11.8 92 0.7 WSW 43 76 23 41 989.3 989.2 3.0
01/01:58pm 13.4 7.4 12.0 91 0.8 W 35 76 19 41 989.2 989.2 3.0
01/01:57pm 13.9 8.6 12.6 92 0.7 W 32 52 17 28 989.2 989.2 3.0
01/01:30pm 14.4 11.0 13.6 95 0.4 NW 24 32 13 17 988.5 988.5 3.0
01/01:00pm 14.0 10.5 13.4 96 0.3 NW 24 32 13 17 988.9 988.8 3.0
01/12:30pm 14.2 13.8 14.0 99 0.1 NNW 9 15 5 8 989.5 989.5 3.0
01/12:00pm 12.4 9.3 12.2 99 0.1 NNW 20 33 11 18 990.6 990.5 2.6
01/11:30am 13.3 11.4 13.1 99 0.1 ENE 15 20 8 11 990.8 990.8 2.4
01/11:00am 12.9 12.4 12.7 99 0.1 NE 7 11 4 6 991.8 991.7 1.4
01/10:30am 13.1 12.7 12.9 99 0.1 ENE 7 11 4 6 992.4 992.4 0.0
01/10:00am 12.8 11.5 12.6 99 0.1 E 11 15 6 8 992.7 992.7 0.0
01/09:30am 12.7 11.0 12.5 99 0.1 ENE 13 20 7 11 993.2 993.2 0.0
01/09:00am 12.7 10.6 12.5 99 0.1 E 15 22 8 12 993.6 993.6 11.6
01/08:30am 12.8 10.4 12.6 99 0.1 E 17 20 9 11 994.5 994.5 11.4
01/08:00am 12.7 9.3 12.5 99 0.1 NNE 22 30 12 16 996.0 996.0 11.0
01/07:30am 12.8 9.8 12.6 99 0.1 NNE 20 30 11 16 996.2 996.2 10.0
01/07:00am 12.9 8.8 12.7 99 0.1 NNE 26 37 14 20 996.0 996.0 9.6
01/06:30am 12.9 8.8 12.7 99 0.1 NNE 26 33 14 18 996.3 996.3 9.6
01/06:00am 13.0 8.6 12.8 99 0.1 NNE 28 39 15 21 997.4 997.4 9.2
01/05:30am 13.1 8.3 12.9 99 0.1 NNE 30 43 16 23 997.8 997.8 7.0
01/05:06am 13.6 9.0 13.4 99 0.1 NNE 30 50 16 27 997.9 997.9 5.2
01/05:00am 13.4 10.6 13.2 99 0.1 N 20 32 11 17 998.0 998.0 4.6
01/04:30am 12.6 9.7 12.4 99 0.1 ENE 19 24 10 13 997.4 997.4 3.2
01/04:00am 12.6 10.1 12.4 99 0.1 ENE 17 22 9 12 998.4 998.4 3.2
01/03:30am 13.0 10.1 12.8 99 0.1 NE 20 28 11 15 998.9 998.9 3.0
01/03:14am 13.5 8.4 13.2 98 0.2 NW 32 52 17 28 999.6 999.6 3.0
01/03:00am 13.6 5.0 12.8 95 0.4 NW 50 63 27 34 1000.6 1000.6 1.8
01/02:38am 15.5 10.5 11.1 75 2.4 NNE 28 59 15 32 1000.1 1000.1 0.0
01/02:30am 15.2 10.6 9.8 70 2.8 NE 24 32 13 17 998.4 998.4 0.0
01/02:00am 14.2 9.5 9.2 72 2.6 NE 24 28 13 15 999.0 999.0 0.0
01/01:30am 14.5 9.5 9.7 73 2.5 NNE 26 33 14 18 1000.0 1000.0 0.0
01/01:00am 14.6 9.3 10.0 74 2.4 NNE 28 32 15 17 1001.0 1001.0 0.0
01/12:30am 15.1 10.3 10.3 73 2.5 NNE 26 35 14 19 1001.6 1001.6 0.0
01/12:00am 14.8 10.5 10.6 76 2.2 NNE 24 33 13 18 1002.6 1002.6 0.0
 
Date/Time
EST
Temp
°C
App
Temp
°C
Dew
Point
Rel
Hum
%
Delta-T
°C
Wind Press
QNH
hPa
Press
MSL
hPa
Rain
since 9 am
mm
Dir
 
Spd
km/h
Gust
km/h
Spd
kts
Gust
kts
30/11:30pm 15.0 10.7 10.8 76 2.2 N 24 32 13 17 1003.3 1003.3 0.0
30/11:00pm 15.6 10.9 10.6 72 2.7 N 26 33 14 18 1004.0 1004.0 0.0
30/10:30pm 14.6 11.3 11.7 83 1.6 N 20 28 11 15 1004.9 1004.9 0.0
30/10:00pm 15.0 11.2 12.3 84 1.5 N 24 32 13 17 1005.4 1005.4 0.0
30/09:30pm 14.3 10.8 12.3 88 1.1 N 22 30 12 16 1005.5 1005.5 0.0
30/09:00pm 14.6 12.2 12.5 87 1.2 N 17 26 9 14 1005.6 1005.6 0.0
30/08:30pm 16.0 11.4 13.5 85 1.4 NNW 30 41 16 22 1005.5 1005.5 0.0
30/08:00pm 16.2 11.0 13.3 83 1.6 NNW 33 46 18 25 1005.6 1005.6 0.0
30/07:30pm 16.1 12.0 13.9 87 1.2 NNW 28 41 15 22 1005.8 1005.8 0.0
30/07:00pm 16.1 11.9 13.6 85 1.4 NNW 28 43 15 23 1005.8 1005.8 0.0
30/06:30pm 16.3 11.7 13.6 84 1.5 NNW 30 43 16 23 1005.9 1005.9 0.0
30/06:00pm 16.6 11.8 13.9 84 1.5 NNW 32 44 17 24 1005.9 1005.9 0.0
30/05:30pm 16.8 11.2 13.3 80 2.0 NNW 35 46 19 25 1006.0 1006.0 0.0
30/05:00pm 17.3 10.3 12.6 74 2.6 NNW 41 61 22 33 1005.9 1005.9 0.0
30/04:30pm 17.4 10.8 12.5 73 2.7 NNW 39 57 21 31 1005.8 1005.8 0.0
30/04:12pm 17.8 10.4 13.1 74 2.6 NNW 44 63 24 34 1005.9 1005.9 0.0
30/04:00pm 18.0 9.7 12.5 70 3.1 NNW 48 65 26 35 1005.9 1005.9 0.0
30/03:56pm 18.0 10.0 12.5 70 3.1 NNW 46 65 25 35 1005.9 1005.9 0.0
30/03:30pm 18.1 9.9 12.8 71 3.0 NNW 48 65 26 35 1006.0 1006.0 0.0
30/03:06pm 18.4 10.0 12.2 67 3.4 NNW 48 70 26 38 1005.9 1005.9 0.0
30/03:00pm 18.4 9.7 12.4 68 3.4 NNW 50 65 27 35 1005.9 1005.9 0.0
30/02:30pm 18.9 10.7 11.7 63 4.0 NNW 46 67 25 36 1005.9 1005.9 0.0
30/02:05pm 18.9 9.9 11.7 63 4.0 NNW 50 69 27 37 1005.9 1005.9 0.0
30/02:00pm 18.8 10.0 12.1 65 3.7 NNW 50 63 27 34 1005.9 1005.9 0.0
30/01:30pm 19.0 11.0 12.5 66 3.6 NNW 46 65 25 35 1006.1 1006.1 0.0
30/01:00pm 19.1 11.1 12.4 65 3.8 NNW 46 65 25 35 1006.3 1006.3 0.0
30/12:30pm 19.0 11.8 13.2 69 3.3 NNW 43 61 23 33 1006.8 1006.8 0.0
30/12:00pm 18.6 11.8 13.2 71 3.1 NNW 41 61 22 33 1007.2 1007.2 0.0
30/11:30am 18.7 12.3 13.1 70 3.2 NNW 39 63 21 34 1007.7 1007.7 0.0
30/11:00am 18.5 12.4 12.9 70 3.2 NNW 37 56 20 30 1008.0 1008.0 0.0
30/10:38am 18.1 13.0 13.0 72 2.9 NNW 32 50 17 27 1008.2 1008.2 0.0
30/10:30am 17.8 12.8 13.3 75 2.5 NNW 32 46 17 25 1008.4 1008.4 0.0
30/10:00am 17.3 12.6 13.2 77 2.3 N 30 44 16 24 1008.6 1008.6 0.0
30/09:30am 15.6 10.7 12.5 82 1.7 N 30 44 16 24 1008.9 1008.9 0.0
30/09:00am 15.2 10.2 12.3 83 1.6 N 30 41 16 22 1009.0 1009.0 7.8
30/08:30am 14.4 9.7 11.9 85 1.3 N 28 37 15 20 1009.1 1009.1 7.8
30/08:00am 13.9 9.1 11.6 86 1.2 N 28 39 15 21 1008.9 1008.9 7.8
30/07:30am 13.4 8.6 11.6 89 1.0 N 28 35 15 19 1008.7 1008.7 7.8
30/07:00am 13.4 9.5 12.1 92 0.7 N 24 35 13 19 1008.5 1008.5 7.8
30/06:30am 13.5 9.8 12.6 94 0.5 N 24 35 13 19 1008.3 1008.3 7.8
30/06:00am 13.7 10.1 13.1 96 0.3 N 24 33 13 18 1008.4 1008.4 7.8
30/05:30am 13.7 10.2 13.4 98 0.2 N 24 33 13 18 1008.7 1008.7 7.8
30/05:00am 13.6 9.7 13.3 98 0.2 N 26 35 14 19 1008.8 1008.8 7.8
30/04:30am 13.9 10.5 13.6 98 0.2 N 24 32 13 17 1008.7 1008.7 7.8
30/04:00am 14.4 10.9 13.4 94 0.6 N 24 33 13 18 1008.7 1008.7 7.8
30/03:30am 14.4 11.3 13.4 94 0.6 N 22 28 12 15 1008.7 1008.7 7.8
30/03:00am 15.0 11.6 13.7 92 0.7 NNW 24 35 13 19 1008.8 1008.8 7.8
30/02:30am 15.0 10.5 13.9 93 0.6 NNW 30 48 16 26 1008.9 1008.9 7.8
30/02:01am 15.7 10.7 14.1 90 0.9 NNW 33 52 18 28 1008.9 1008.9 7.8
30/02:00am 15.6 10.6 14.0 90 0.9 NNW 33 50 18 27 1008.9 1008.9 7.8
30/01:30am 15.8 7.9 13.8 88 1.1 NNW 48 59 26 32 1009.0 1009.0 7.8
30/01:00am 15.8 8.1 14.5 92 0.7 NW 48 59 26 32 1009.0 1009.0 7.8
30/12:30am 15.7 7.9 14.1 90 0.9 NW 48 59 26 32 1009.0 1009.0 7.8
30/12:00am 15.9 8.6 14.4 91 0.9 NNW 46 57 25 31 1008.8 1008.8 7.8
 
Date/Time
EST
Temp
°C
App
Temp
°C
Dew
Point
Rel
Hum
%
Delta-T
°C
Wind Press
QNH
hPa
Press
MSL
hPa
Rain
since 9 am
mm
Dir
 
Spd
km/h
Gust
km/h
Spd
kts
Gust
kts
29/11:30pm 15.8 9.2 14.8 94 0.6 NNW 43 56 23 30 1008.9 1008.9 7.8
29/11:00pm 15.8 9.2 14.8 94 0.6 NNW 43 54 23 29 1009.2 1009.2 7.8
29/10:30pm 15.8 8.6 14.8 94 0.6 NNW 46 56 25 30 1009.3 1009.3 7.8
29/10:00pm 15.8 7.5 14.8 94 0.6 NW 52 63 28 34 1009.3 1009.3 7.8
29/09:30pm 15.8 7.9 15.0 95 0.5 NNW 50 63 27 34 1009.0 1009.0 7.8
29/09:00pm 15.8 8.0 15.3 97 0.3 NW 50 63 27 34 1008.7 1008.7 7.8
29/08:30pm 15.6 8.5 15.1 97 0.3 NNW 46 57 25 31 1008.2 1008.2 7.8
29/08:00pm 15.1 9.7 14.9 99 0.1 NNW 37 52 20 28 1008.1 1008.1 7.8
29/07:30pm 15.2 7.8 14.1 93 0.6 NW 46 56 25 30 1007.9 1007.9 7.8
29/07:00pm 15.7 9.0 15.1 96 0.3 NNW 44 56 24 30 1008.1 1008.1 7.8
29/06:30pm 15.7 7.9 15.2 97 0.3 NW 50 61 27 33 1008.1 1008.1 7.8
29/06:00pm 15.7 7.6 15.5 99 0.1 NW 52 65 28 35 1007.7 1007.7 7.6
29/05:38pm 15.4 8.9 15.2 99 0.1 NNW 43 61 23 33 1007.4 1007.4 7.6
29/05:30pm 15.4 8.9 15.2 99 0.1 NNW 43 54 23 29 1007.4 1007.4 7.6
29/05:00pm 15.3 6.3 15.1 99 0.1 NNW 56 74 30 40 1007.1 1007.1 7.6
29/04:50pm 15.4 7.2 15.2 99 0.1 NNW 52 70 28 38 1007.1 1007.1 7.6
29/04:30pm 15.3 10.7 15.1 99 0.1 NNW 33 52 18 28 1006.9 1006.9 6.4
29/04:00pm 15.5 8.1 15.3 99 0.1 NNW 48 69 26 37 1006.9 1006.9 5.6
29/03:39pm 15.5 9.8 15.3 99 0.1 NNW 39 57 21 31 1006.8 1006.8 5.2

Other Formats:

Comma delimited format used in spreadsheet applications
http://www.bom.gov.au/fwo/IDT60801/IDT60801.95961.axf

JavaScript Object Notation format (JSON) in row-major order
http://www.bom.gov.au/fwo/IDT60801/IDT60801.95961.json